Time;durP1;ratioP1;P1;durP2;ratioP2;P2;SDS_P1;SDS_P2;PMS_P1;PMS_P2;Temp;Humidity;BMP_temperature;BMP_pressure;BME280_temperature;BME280_humidity;BME280_pressure;Samples;Min_cycle;Max_cycle;Signal;HPM_P1;HPM_P2
2023/09/26 04:06:19;;;;;;;11.32;7.97;;;;;;;19.23;100.00;101283.44;5606993;31;77813;-58
2023/09/26 04:09:21;;;;;;;16.20;8.10;;;;;;;19.23;100.00;101283.44;5602988;31;33280;-58
2023/09/26 04:12:23;;;;;;;14.05;8.38;;;;;;;18.82;100.00;101283.00;5603073;31;33620;-58
2023/09/26 04:15:26;;;;;;;14.13;8.07;;;;;;;18.94;100.00;101288.63;5602650;31;33560;-58
2023/09/26 04:18:30;;;;;;;14.10;8.57;;;;;;;18.97;100.00;101285.28;5603155;31;33607;-58
2023/09/26 04:21:34;;;;;;;12.32;7.43;;;;;;;18.93;100.00;101287.03;5602821;31;34358;-58
2023/09/26 04:24:36;;;;;;;13.27;8.13;;;;;;;18.93;100.00;101287.03;5602782;31;34372;-59
2023/09/26 04:27:39;;;;;;;11.80;8.25;;;;;;;18.96;100.00;101281.75;5602702;31;33700;-58
2023/09/26 04:30:41;;;;;;;13.77;8.43;;;;;;;18.99;100.00;101291.22;5602382;31;33698;-58
2023/09/26 04:33:48;;;;;;;9.68;6.95;;;;;;;18.98;100.00;101297.78;5603183;31;33148;-58
2023/09/26 04:36:51;;;;;;;12.43;7.32;;;;;;;18.95;100.00;101296.47;5586850;31;33888;-58
2023/09/26 04:39:54;;;;;;;15.45;8.98;;;;;;;19.15;100.00;101300.53;5571973;32;34223;-58
2023/09/26 04:43:01;;;;;;;11.80;7.40;;;;;;;19.19;100.00;101308.84;5582381;31;33448;-58
2023/09/26 04:46:10;;;;;;;10.85;8.05;;;;;;;19.14;100.00;101304.37;5582600;31;34213;-58
2023/09/26 04:49:13;;;;;;;10.73;7.75;;;;;;;19.29;100.00;101318.63;5582408;32;33673;-58
2023/09/26 04:52:16;;;;;;;13.13;7.78;;;;;;;19.30;100.00;101314.78;5582478;32;33600;-58
2023/09/26 04:55:18;;;;;;;11.57;7.07;;;;;;;19.22;100.00;101316.38;5581579;32;34177;-59
2023/09/26 04:58:21;;;;;;;12.40;7.43;;;;;;;19.21;100.00;101315.59;5562542;32;33307;-58
2023/09/26 05:01:26;;;;;;;12.32;7.45;;;;;;;19.27;100.00;101320.88;5575068;32;33721;-58
2023/09/26 05:04:29;;;;;;;13.55;8.60;;;;;;;19.32;100.00;101320.72;5582326;31;34347;-59
2023/09/26 05:07:31;;;;;;;11.60;7.78;;;;;;;19.21;100.00;101320.22;5581993;31;33646;-58
2023/09/26 05:10:37;;;;;;;11.80;7.25;;;;;;;19.33;100.00;101323.12;5565678;32;33674;-58
2023/09/26 05:13:40;;;;;;;;;;;;;;;19.35;100.00;101320.91;5561957;32;34408;-58
2023/09/26 05:16:42;;;;;;;14.35;7.80;;;;;;;19.33;100.00;101319.59;5553073;32;34045;-59
2023/09/26 05:19:45;;;;;;;11.18;6.65;;;;;;;19.32;100.00;101320.72;5548595;32;33634;-58
2023/09/26 05:22:51;;;;;;;16.60;7.87;;;;;;;19.31;100.00;101327.28;5553747;32;33158;-59
2023/09/26 05:25:53;;;;;;;12.45;7.97;;;;;;;19.46;100.00;101318.66;5548640;32;33618;-58
2023/09/26 05:28:56;;;;;;;13.45;9.23;;;;;;;19.40;100.00;101319.94;5547894;32;34321;-58
2023/09/26 05:31:58;;;;;;;15.52;10.18;;;;;;;19.40;100.00;101323.47;5549009;32;33679;-58
2023/09/26 05:35:01;;;;;;;18.58;8.05;;;;;;;19.37;100.00;101329.56;5548716;32;34234;-59
2023/09/26 05:38:03;;;;;;;11.48;8.57;;;;;;;19.30;100.00;101321.03;5552661;32;33853;-58
2023/09/26 05:41:05;;;;;;;18.55;8.38;;;;;;;19.31;100.00;101325.37;5548691;32;34968;-58
2023/09/26 05:44:08;;;;;;;13.32;8.27;;;;;;;19.35;100.00;101322.81;5548072;32;34406;-58
2023/09/26 05:47:10;;;;;;;18.75;8.35;;;;;;;19.33;100.00;101330.47;5549604;32;33424;-59
2023/09/26 05:50:13;;;;;;;11.35;7.78;;;;;;;19.41;100.00;101327.00;5547048;32;33779;-59
2023/09/26 05:53:17;;;;;;;16.02;7.90;;;;;;;19.42;100.00;101329.38;5547948;32;34380;-59
2023/09/26 05:56:20;;;;;;;14.73;7.60;;;;;;;19.56;100.00;101333.88;5547729;32;33685;-58
2023/09/26 05:59:23;;;;;;;16.17;7.80;;;;;;;19.59;100.00;101335.97;5547096;32;33627;-59
2023/09/26 06:02:25;;;;;;;18.30;7.65;;;;;;;19.73;100.00;101331.22;5546825;32;33552;-59
2023/09/26 06:05:28;;;;;;;13.43;7.45;;;;;;;19.76;99.97;101338.75;5546704;32;34359;-59
2023/09/26 06:08:30;;;;;;;15.05;8.15;;;;;;;19.74;100.00;101340.19;5549219;32;33942;-59
2023/09/26 06:11:33;;;;;;;21.87;8.57;;;;;;;19.69;100.00;101336.50;5546967;32;33759;-58
2023/09/26 06:14:35;;;;;;;16.65;8.40;;;;;;;19.75;99.16;101333.62;5547178;32;34296;-58
2023/09/26 06:17:40;;;;;;;14.82;8.10;;;;;;;19.79;97.80;101331.87;5547023;32;33389;-59
2023/09/26 06:20:44;;;;;;;14.00;7.55;;;;;;;19.86;98.77;101329.47;5545256;32;32889;-58
2023/09/26 06:23:48;;;;;;;16.37;7.12;;;;;;;19.93;96.75;101327.88;5543587;32;34043;-58
2023/09/26 06:26:52;;;;;;;15.00;7.85;;;;;;;19.92;100.00;101331.72;5546163;32;33635;-58
2023/09/26 06:29:55;;;;;;;13.00;8.00;;;;;;;20.00;100.00;101324.69;5546574;32;33651;-58
2023/09/26 06:32:57;;;;;;;14.90;8.23;;;;;;;19.97;95.40;101324.50;5546717;32;33580;-58
2023/09/26 06:36:00;;;;;;;9.90;7.80;;;;;;;20.06;97.05;101328.03;5546845;32;34407;-58
2023/09/26 06:39:02;;;;;;;17.75;8.60;;;;;;;20.08;94.96;101332.03;5549610;32;33578;-58
2023/09/26 06:42:05;;;;;;;16.33;8.02;;;;;;;20.05;95.48;101324.50;5547189;32;33929;-58
2023/09/26 06:45:09;;;;;;;18.83;7.95;;;;;;;20.11;95.01;101325.16;5547697;32;34327;-58
2023/09/26 06:48:11;;;;;;;18.12;8.30;;;;;;;20.13;97.25;101326.44;5546575;32;33500;-58
2023/09/26 06:51:14;;;;;;;15.40;8.40;;;;;;;20.09;96.43;101325.47;5547137;32;33803;-57
2023/09/26 06:54:16;;;;;;;12.93;7.87;;;;;;;20.13;92.36;101325.63;5547520;32;33626;-58
2023/09/26 06:57:20;;;;;;;16.37;7.87;;;;;;;20.19;95.66;101324.34;5547809;32;34332;-58
2023/09/26 07:00:24;;;;;;;15.63;8.10;;;;;;;20.26;93.15;101329.28;5547253;32;33394;-58
2023/09/26 07:03:27;;;;;;;17.75;8.32;;;;;;;20.30;91.50;101331.06;5545991;32;34266;-58
2023/09/26 07:06:30;;;;;;;15.68;8.00;;;;;;;20.29;91.51;101328.66;5546347;32;34457;-58
2023/09/26 07:09:32;;;;;;;11.75;8.10;;;;;;;20.37;94.42;101331.38;5547185;32;34250;-58
2023/09/26 07:12:35;;;;;;;14.20;8.73;;;;;;;20.46;94.32;101336.78;5547006;32;34100;-58
2023/09/26 07:15:37;;;;;;;14.75;8.50;;;;;;;20.44;90.70;101336.31;5548730;32;34244;-58
2023/09/26 07:18:40;;;;;;;17.73;9.10;;;;;;;20.53;87.92;101336.31;5547260;32;34170;-58
2023/09/26 07:21:44;;;;;;;11.20;7.95;;;;;;;20.61;93.27;101333.59;5546878;32;34046;-58
2023/09/26 07:24:49;;;;;;;11.50;8.98;;;;;;;20.72;96.48;101334.03;5546022;32;33702;-58
2023/09/26 07:27:51;;;;;;;17.90;8.38;;;;;;;20.77;94.26;101335.78;5546161;32;33589;-58
2023/09/26 07:30:54;;;;;;;11.25;7.95;;;;;;;20.76;95.40;101337.72;5546096;32;34424;-58
2023/09/26 07:33:56;;;;;;;14.87;8.23;;;;;;;20.81;94.66;101339.47;5545183;32;33902;-58
2023/09/26 07:36:59;;;;;;;14.38;8.60;;;;;;;20.76;92.93;101343.16;5542257;32;33660;-58
2023/09/26 07:40:05;;;;;;;16.92;8.77;;;;;;;20.84;94.36;101349.72;5545488;32;33678;-58
2023/09/26 07:43:08;;;;;;;;;;;;;;;20.78;90.09;101345.56;5546137;32;33595;-58
2023/09/26 07:46:12;;;;;;;14.70;8.55;;;;;;;20.80;91.57;101357.72;5548307;32;34532;-58
2023/09/26 07:49:15;;;;;;;14.48;8.07;;;;;;;20.79;90.36;101353.38;5547317;32;33205;-58
2023/09/26 07:52:17;;;;;;;17.30;8.80;;;;;;;20.92;95.25;101356.25;5546040;32;33696;-58
2023/09/26 07:55:20;;;;;;;15.82;8.82;;;;;;;20.97;92.66;101354.16;5544583;32;33563;-58
2023/09/26 07:58:23;;;;;;;10.65;8.45;;;;;;;20.97;88.71;101359.59;5546496;32;33538;-58
2023/09/26 08:01:25;;;;;;;19.45;9.30;;;;;;;21.02;90.99;101355.87;5546202;32;33531;-58
2023/09/26 08:04:28;;;;;;;12.68;8.85;;;;;;;21.08;89.11;101354.56;5547034;32;34351;-58
2023/09/26 08:07:30;;;;;;;12.02;8.02;;;;;;;21.10;89.03;101352.34;5546205;32;34324;-58
2023/09/26 08:10:38;;;;;;;17.00;8.65;;;;;;;21.15;87.06;101359.53;5546749;32;33563;-58
2023/09/26 08:13:40;;;;;;;15.48;8.77;;;;;;;21.17;89.97;101357.28;5543960;32;33653;-58
2023/09/26 08:16:43;;;;;;;15.13;8.73;;;;;;;21.24;89.51;101358.34;5543640;32;33981;-58
2023/09/26 08:19:45;;;;;;;14.23;8.80;;;;;;;21.24;85.55;101361.09;5545258;32;33739;-58
2023/09/26 08:22:48;;;;;;;14.50;9.68;;;;;;;21.28;85.97;101356.56;5546275;32;33474;-58
2023/09/26 08:26:00;;;;;;;15.32;9.07;;;;;;;21.34;86.41;101355.28;5547178;32;33384;-58
2023/09/26 08:29:05;;;;;;;14.32;8.57;;;;;;;21.46;82.39;101354.59;5551800;32;34783;-58
2023/09/26 08:32:09;;;;;;;12.45;8.20;;;;;;;21.51;83.08;101351.66;5547088;32;33695;-58
2023/09/26 08:35:12;;;;;;;11.00;8.73;;;;;;;21.60;83.44;101356.25;5546667;32;33648;-58
2023/09/26 08:38:14;;;;;;;13.25;8.02;;;;;;;21.60;79.71;101350.81;5545206;32;34289;-59
2023/09/26 08:41:18;;;;;;;11.65;9.02;;;;;;;21.61;80.81;101355.13;5548891;32;34004;-58
2023/09/26 08:44:21;;;;;;;14.00;9.20;;;;;;;21.65;80.97;101351.41;5547671;32;34313;-58
2023/09/26 08:47:24;;;;;;;12.30;8.90;;;;;;;21.69;81.50;101344.16;5546539;32;33043;-58
2023/09/26 08:50:26;;;;;;;17.40;9.65;;;;;;;21.66;82.36;101344.03;5546147;32;34625;-59
2023/09/26 08:53:30;;;;;;;17.73;10.30;;;;;;;21.68;82.47;101345.28;5547815;32;33276;-58
2023/09/26 08:56:33;;;;;;;17.95;8.73;;;;;;;21.69;81.86;101338.72;5546977;32;34270;-59
2023/09/26 08:59:36;;;;;;;16.85;8.60;;;;;;;21.78;80.32;101335.91;5546497;32;33047;-59
2023/09/26 09:02:39;;;;;;;12.20;9.35;;;;;;;21.85;78.58;101332.63;5553583;32;33657;-59
2023/09/26 09:05:41;;;;;;;14.52;9.15;;;;;;;21.98;77.47;101328.84;5547924;32;33305;-59
2023/09/26 09:08:44;;;;;;;13.68;8.70;;;;;;;21.97;77.00;101330.78;5544294;32;33820;-59
2023/09/26 09:11:47;;;;;;;16.60;8.88;;;;;;;22.03;76.85;101334.09;5551522;32;32930;-58
2023/09/26 09:14:50;;;;;;;13.95;8.60;;;;;;;22.16;76.44;101329.53;5549945;32;33775;-59
2023/09/26 09:17:53;;;;;;;11.63;8.63;;;;;;;22.15;75.09;101322.41;5547390;32;32951;-59
2023/09/26 09:20:56;;;;;;;16.27;7.97;;;;;;;22.17;75.61;101331.91;5547849;32;33782;-59
2023/09/26 09:24:01;;;;;;;11.52;7.37;;;;;;;22.28;75.97;101326.81;5547640;32;33869;-59
2023/09/26 09:27:03;;;;;;;13.23;8.15;;;;;;;22.38;75.29;101322.88;5548045;32;33618;-59
2023/09/26 09:30:11;;;;;;;14.77;8.35;;;;;;;22.33;75.05;101323.88;5542495;32;34052;-58
2023/09/26 09:33:16;;;;;;;14.27;8.10;;;;;;;22.38;73.49;101323.66;5548742;32;33713;-58
2023/09/26 09:36:19;;;;;;;14.52;8.60;;;;;;;22.53;69.83;101324.97;5549054;32;33183;-58
2023/09/26 09:39:22;;;;;;;16.10;9.07;;;;;;;22.54;71.01;101318.34;5548322;32;33714;-59
2023/09/26 09:42:25;;;;;;;10.90;7.35;;;;;;;22.49;71.72;101318.59;5548540;32;34298;-59
2023/09/26 09:45:29;;;;;;;14.68;8.30;;;;;;;22.51;70.28;101308.91;5545113;32;34344;-59
2023/09/26 09:48:45;;;;;;;15.13;8.43;;;;;;;22.61;69.80;101312.34;5548865;32;33951;-60
2023/09/26 09:51:47;;;;;;;15.68;8.20;;;;;;;22.61;72.56;101302.19;5546463;32;34318;-60
2023/09/26 09:54:54;;;;;;;12.90;7.90;;;;;;;22.67;69.96;101295.38;5546030;32;34173;-59
2023/09/26 09:57:58;;;;;;;12.90;7.72;;;;;;;22.79;68.65;101293.81;5548364;32;33217;-59
2023/09/26 10:01:02;;;;;;;14.73;8.20;;;;;;;22.82;67.91;101293.12;5547033;32;33206;-59
2023/09/26 10:04:06;;;;;;;15.52;8.18;;;;;;;22.81;67.74;101286.84;5550647;32;33711;-59
2023/09/26 10:07:11;;;;;;;12.00;7.45;;;;;;;22.87;68.90;101280.00;5548673;32;34416;-59
2023/09/26 10:10:16;;;;;;;11.90;7.23;;;;;;;22.94;65.08;101271.28;5550027;32;32457;-59
2023/09/26 10:13:19;;;;;;;13.13;7.30;;;;;;;23.07;64.98;101270.13;5545838;32;33686;-59
2023/09/26 10:16:37;;;;;;;15.48;7.37;;;;;;;23.05;65.14;101274.37;5553823;32;33551;-59
2023/09/26 10:19:40;;;;;;;11.52;7.07;;;;;;;23.13;64.12;101268.75;5548446;32;33884;-59
2023/09/26 10:23:12;;;;;;;11.70;6.95;;;;;;;23.11;64.22;101267.50;5544778;32;35005;-59
2023/09/26 10:26:17;;;;;;;11.57;6.70;;;;;;;23.25;58.05;101257.00;5553227;32;33655;-59
2023/09/26 10:29:27;;;;;;;16.17;6.78;;;;;;;23.34;60.35;101262.34;5548804;32;33607;-59
2023/09/26 10:32:33;;;;;;;14.98;7.10;;;;;;;23.36;58.99;101262.78;5548709;32;33735;-59
2023/09/26 10:35:43;;;;;;;14.75;7.60;;;;;;;23.33;59.88;101253.34;5548181;32;33688;-59
2023/09/26 10:38:58;;;;;;;17.17;9.70;;;;;;;23.32;59.52;101249.00;5548338;32;33705;-59
2023/09/26 10:42:15;;;;;;;9.82;7.32;;;;;;;23.32;61.37;101248.22;5547162;32;34290;-59
2023/09/26 10:45:41;;;;;;;14.10;7.37;;;;;;;23.49;60.04;101244.41;5546049;32;33792;-59
2023/09/26 10:48:44;;;;;;;12.02;6.95;;;;;;;23.59;58.12;101241.19;5541715;32;34052;-59
2023/09/26 10:51:47;;;;;;;14.73;6.85;;;;;;;23.57;58.90;101238.78;5540782;32;34414;-59
2023/09/26 10:54:51;;;;;;;12.90;6.90;;;;;;;23.64;57.58;101238.19;5544669;32;33814;-57
2023/09/26 10:57:55;;;;;;;12.50;6.65;;;;;;;23.64;59.64;101235.44;5545890;32;32413;-57
2023/09/26 11:00:58;;;;;;;11.35;6.12;;;;;;;23.54;57.42;101236.75;5544433;32;33413;-57
2023/09/26 11:04:00;;;;;;;16.02;6.70;;;;;;;23.75;57.86;101236.59;5547922;32;32411;-57
2023/09/26 11:07:05;;;;;;;12.63;6.37;;;;;;;23.89;56.12;101233.44;5544407;32;33438;-57
2023/09/26 11:10:12;;;;;;;8.38;6.90;;;;;;;23.79;57.49;101233.94;5545876;32;33668;-57
2023/09/26 11:13:16;;;;;;;12.73;7.18;;;;;;;23.80;57.12;101227.31;5546009;32;33670;-57
2023/09/26 11:16:20;;;;;;;10.10;6.32;;;;;;;23.88;56.12;101224.44;5550137;32;34578;-56
2023/09/26 11:19:23;;;;;;;9.82;6.40;;;;;;;23.91;56.02;101225.69;5542741;32;33633;-56
2023/09/26 11:22:26;;;;;;;11.27;6.43;;;;;;;23.88;55.54;101218.16;5547641;32;33780;-58
2023/09/26 11:25:31;;;;;;;13.35;6.47;;;;;;;23.96;54.61;101205.44;5545764;32;32570;-58
2023/09/26 11:28:36;;;;;;;14.45;7.05;;;;;;;24.01;55.44;101206.00;5544372;32;33626;-56
2023/09/26 11:31:39;;;;;;;16.87;6.32;;;;;;;23.98;54.79;101201.22;5550467;32;34344;-56
2023/09/26 11:34:44;;;;;;;16.62;6.65;;;;;;;23.99;55.52;101202.00;5546638;32;34049;-56
2023/09/26 11:37:50;;;;;;;15.93;6.97;;;;;;;24.06;54.42;101191.25;5543719;32;34503;-58
2023/09/26 11:40:57;;;;;;;20.40;6.65;;;;;;;24.11;54.83;101193.72;5546929;32;34819;-57
2023/09/26 11:44:13;;;;;;;12.27;6.97;;;;;;;24.17;54.50;101197.78;5549369;32;33708;-57
2023/09/26 11:47:15;;;;;;;8.88;5.30;;;;;;;24.11;55.11;101193.72;5547856;32;33743;-57
2023/09/26 11:50:19;;;;;;;30.20;6.62;;;;;;;24.32;53.47;101179.75;5549816;32;33682;-58
2023/09/26 11:53:23;;;;;;;11.07;6.60;;;;;;;24.36;52.41;101184.16;5546372;32;34324;-57
2023/09/26 11:56:28;;;;;;;12.88;6.37;;;;;;;24.35;52.68;101177.09;5541352;32;34765;-57
2023/09/26 11:59:30;;;;;;;9.35;6.30;;;;;;;24.36;51.27;101172.41;5548760;32;33921;-57
2023/09/26 12:02:34;;;;;;;9.57;5.78;;;;;;;24.34;51.07;101170.03;5546936;32;34328;-58
2023/09/26 12:05:37;;;;;;;11.52;6.45;;;;;;;24.41;51.05;101163.19;5542377;32;33836;-59
2023/09/26 12:08:39;;;;;;;12.68;6.10;;;;;;;24.62;50.83;101166.41;5545017;32;34373;-59
2023/09/26 12:11:42;;;;;;;9.95;6.12;;;;;;;24.54;50.49;101170.94;5546206;32;33717;-58
2023/09/26 12:14:46;;;;;;;15.50;5.72;;;;;;;24.49;48.09;101153.97;5546089;32;33711;-58
2023/09/26 12:17:53;;;;;;;14.30;6.10;;;;;;;24.49;49.33;101153.97;5546069;32;33839;-58
2023/09/26 12:20:56;;;;;;;14.73;6.70;;;;;;;24.51;50.14;101151.69;5529745;32;33894;-58
2023/09/26 12:23:58;;;;;;;12.00;6.20;;;;;;;24.71;49.99;101145.09;5530934;32;34315;-59
2023/09/26 12:27:02;;;;;;;13.68;6.20;;;;;;;24.65;49.22;101151.19;5562737;32;33764;-58
2023/09/26 12:30:05;;;;;;;15.70;6.10;;;;;;;24.52;50.05;101148.56;5541179;32;33691;-59
2023/09/26 12:33:08;;;;;;;9.38;5.72;;;;;;;24.52;50.29;101139.56;5548542;32;33868;-59
2023/09/26 12:36:11;;;;;;;12.88;5.43;;;;;;;24.59;47.32;101136.97;5548556;32;33421;-59
2023/09/26 12:39:13;;;;;;;7.07;5.53;;;;;;;24.61;50.11;101146.44;5553405;32;34387;-59
2023/09/26 12:42:16;;;;;;;15.13;5.62;;;;;;;24.65;48.60;101135.53;5566460;32;33889;-59
2023/09/26 12:45:19;;;;;;;15.00;5.90;;;;;;;24.58;47.86;101141.66;5538860;32;33665;-59
2023/09/26 12:48:24;;;;;;;13.40;5.70;;;;;;;24.72;47.12;101145.87;5547310;32;32423;-59
2023/09/26 12:51:28;;;;;;;8.98;5.37;;;;;;;24.75;47.55;101139.69;5544498;32;33182;-59
2023/09/26 12:54:31;;;;;;;11.40;5.97;;;;;;;24.69;47.05;101146.59;5550772;32;33308;-59
2023/09/26 12:57:34;;;;;;;14.70;6.03;;;;;;;24.75;47.44;101136.94;5549025;32;33697;-58
2023/09/26 13:00:36;;;;;;;12.80;5.55;;;;;;;24.78;47.20;101136.22;5550605;32;33829;-59
2023/09/26 13:03:39;;;;;;;11.10;5.68;;;;;;;24.70;47.91;101132.53;5550161;32;33740;-58
2023/09/26 13:06:42;;;;;;;145.43;21.73;;;;;;;24.72;48.04;101126.69;5550230;32;33761;-58
2023/09/26 13:09:44;;;;;;;15.48;6.40;;;;;;;24.65;47.47;101121.84;5550138;32;33597;-59
2023/09/26 13:12:47;;;;;;;665.58;92.65;;;;;;;24.64;46.58;101119.47;5548645;32;34361;-58
2023/09/26 13:15:49;;;;;;;50.67;10.45;;;;;;;24.64;47.52;101117.50;5549118;32;33346;-58
2023/09/26 13:18:52;;;;;;;13.93;5.55;;;;;;;24.62;47.77;101114.31;5559296;32;33829;-58
2023/09/26 13:21:55;;;;;;;14.50;5.37;;;;;;;24.71;47.15;101122.38;5569846;32;33714;-57
2023/09/26 13:24:59;;;;;;;16.62;5.47;;;;;;;24.84;44.80;101113.66;5566540;32;33620;-58
2023/09/26 13:28:01;;;;;;;11.50;4.65;;;;;;;24.87;46.39;101120.38;5546846;32;33653;-58
2023/09/26 13:31:04;;;;;;;11.07;5.65;;;;;;;24.78;45.37;101106.84;5541043;32;33393;-58
2023/09/26 13:34:06;;;;;;;9.70;5.20;;;;;;;24.80;45.39;101103.75;5545453;32;33900;-58
2023/09/26 13:37:09;;;;;;;19.77;6.75;;;;;;;24.73;45.59;101104.37;5549299;31;34341;-58
2023/09/26 13:40:12;;;;;;;10.48;5.20;;;;;;;24.77;46.16;101109.97;5550167;32;34406;-59
2023/09/26 13:43:14;;;;;;;17.55;5.20;;;;;;;24.85;45.73;101107.00;5539122;32;32139;-59
2023/09/26 13:46:17;;;;;;;12.68;5.15;;;;;;;24.86;46.60;101110.53;5539067;32;33712;-57
2023/09/26 13:49:19;;;;;;;12.57;5.30;;;;;;;24.83;46.43;101106.59;5554523;32;33718;-57
2023/09/26 13:52:21;;;;;;;10.88;5.12;;;;;;;24.76;47.18;101116.59;5569753;32;34345;-58
2023/09/26 13:55:24;;;;;;;10.98;4.82;;;;;;;24.77;46.11;101115.44;5547364;32;34470;-58
2023/09/26 13:58:26;;;;;;;15.32;5.10;;;;;;;24.69;45.67;101106.25;5537283;32;33667;-58
2023/09/26 14:01:28;;;;;;;8.85;4.80;;;;;;;24.67;46.81;101100.34;5530413;32;34495;-57
2023/09/26 14:04:31;;;;;;;14.25;5.65;;;;;;;24.73;46.16;101101.63;5544755;32;33635;-57
2023/09/26 14:07:33;;;;;;;12.23;4.90;;;;;;;24.73;46.72;101103.59;5548764;32;33045;-58
2023/09/26 14:10:36;;;;;;;11.75;4.85;;;;;;;24.80;44.45;101107.28;5549870;32;33645;-58
2023/09/26 14:13:39;;;;;;;12.57;5.05;;;;;;;24.71;44.44;101095.72;5550090;32;34272;-59
2023/09/26 14:16:42;;;;;;;19.10;5.72;;;;;;;24.68;43.53;101090.97;5550015;32;33731;-58
2023/09/26 14:19:46;;;;;;;11.63;5.35;;;;;;;24.71;45.47;101095.72;5549873;32;34380;-58
2023/09/26 14:22:48;;;;;;;9.23;4.80;;;;;;;24.70;44.13;101098.81;5549591;32;34340;-59
2023/09/26 14:25:52;;;;;;;21.48;5.62;;;;;;;24.65;43.63;101094.44;5550168;32;34369;-59
2023/09/26 14:29:00;;;;;;;50.38;7.45;;;;;;;24.70;43.76;101096.06;5549389;32;33632;-59
2023/09/26 14:32:02;;;;;;;31.08;5.87;;;;;;;24.84;42.99;101083.47;5549636;32;34298;-59
2023/09/26 14:35:06;;;;;;;28.80;6.03;;;;;;;24.76;43.16;101102.88;5548892;32;33193;-59
2023/09/26 14:38:08;;;;;;;16.15;4.95;;;;;;;24.73;44.70;101096.16;5549110;32;33689;-59
2023/09/26 14:41:11;;;;;;;12.45;4.90;;;;;;;24.63;43.46;101093.97;5548731;32;33730;-59
2023/09/26 14:44:13;;;;;;;22.50;5.20;;;;;;;24.62;42.69;101095.13;5549304;32;33811;-59
2023/09/26 14:47:19;;;;;;;13.93;5.87;;;;;;;24.60;42.05;101100.16;5548946;32;34330;-59
2023/09/26 14:50:21;;;;;;;12.15;4.75;;;;;;;24.67;42.73;101103.09;5547229;32;34332;-59
2023/09/26 14:53:25;;;;;;;7.22;4.37;;;;;;;24.67;43.51;101094.87;5548804;32;34131;-59
2023/09/26 14:56:27;;;;;;;12.68;4.53;;;;;;;24.61;43.06;101094.34;5549246;32;33715;-59
